sensor_id;sensor_type;location;lat;lon;timestamp;pressure;altitude;pressure_sealevel;temperature;humidity
66857;BME280;53766;50.280;19.160;2023-07-13T00:02:01;98104.56;;;24.67;54.98
66857;BME280;53766;50.280;19.160;2023-07-13T00:04:29;98083.53;;;24.63;55.50
66857;BME280;53766;50.280;19.160;2023-07-13T00:06:59;98098.88;;;24.63;55.25
66857;BME280;53766;50.280;19.160;2023-07-13T00:09:27;98120.66;;;24.61;55.43
66857;BME280;53766;50.280;19.160;2023-07-13T00:11:56;98116.31;;;24.60;55.44
66857;BME280;53766;50.280;19.160;2023-07-13T00:14:26;98122.78;;;24.59;55.50
66857;BME280;53766;50.280;19.160;2023-07-13T00:16:54;98127.94;;;24.61;55.39
66857;BME280;53766;50.280;19.160;2023-07-13T00:19:22;98130.88;;;24.59;55.86
66857;BME280;53766;50.280;19.160;2023-07-13T00:21:49;98148.06;;;24.58;55.52
66857;BME280;53766;50.280;19.160;2023-07-13T00:24:18;98153.72;;;24.57;55.77
66857;BME280;53766;50.280;19.160;2023-07-13T00:26:51;98168.81;;;24.58;55.31
66857;BME280;53766;50.280;19.160;2023-07-13T00:29:19;98180.38;;;24.58;56.05
66857;BME280;53766;50.280;19.160;2023-07-13T00:31:48;98177.63;;;24.53;55.98
66857;BME280;53766;50.280;19.160;2023-07-13T00:34:15;98169.50;;;24.48;55.97
66857;BME280;53766;50.280;19.160;2023-07-13T00:36:43;98160.84;;;24.46;55.41
66857;BME280;53766;50.280;19.160;2023-07-13T00:39:12;98158.22;;;24.51;55.37
66857;BME280;53766;50.280;19.160;2023-07-13T00:41:40;98140.47;;;24.50;55.64
66857;BME280;53766;50.280;19.160;2023-07-13T00:44:13;98131.47;;;24.44;55.95
66857;BME280;53766;50.280;19.160;2023-07-13T00:46:41;98140.34;;;24.45;55.64
66857;BME280;53766;50.280;19.160;2023-07-13T00:49:12;98132.03;;;24.47;55.64
66857;BME280;53766;50.280;19.160;2023-07-13T00:51:51;98126.88;;;24.45;55.79
66857;BME280;53766;50.280;19.160;2023-07-13T00:54:23;98113.94;;;24.42;55.43
66857;BME280;53766;50.280;19.160;2023-07-13T00:56:53;98115.00;;;24.41;55.84
66857;BME280;53766;50.280;19.160;2023-07-13T00:59:23;98111.81;;;24.44;55.77
66857;BME280;53766;50.280;19.160;2023-07-13T01:01:51;98115.56;;;24.43;55.67
66857;BME280;53766;50.280;19.160;2023-07-13T01:04:20;98112.88;;;24.43;55.79
66857;BME280;53766;50.280;19.160;2023-07-13T01:06:47;98111.25;;;24.42;56.00
66857;BME280;53766;50.280;19.160;2023-07-13T01:09:15;98107.47;;;24.43;55.60
66857;BME280;53766;50.280;19.160;2023-07-13T01:11:43;98107.47;;;24.43;55.65
66857;BME280;53766;50.280;19.160;2023-07-13T01:14:12;98089.41;;;24.38;56.33
66857;BME280;53766;50.280;19.160;2023-07-13T01:16:41;98082.69;;;24.41;55.58
66857;BME280;53766;50.280;19.160;2023-07-13T01:21:53;98099.97;;;24.45;55.89
66857;BME280;53766;50.280;19.160;2023-07-13T01:24:21;98087.53;;;24.39;55.78
66857;BME280;53766;50.280;19.160;2023-07-13T01:26:48;98091.84;;;24.40;55.89
66857;BME280;53766;50.280;19.160;2023-07-13T01:29:16;98086.47;;;24.40;56.13
66857;BME280;53766;50.280;19.160;2023-07-13T01:31:43;98098.84;;;24.41;55.94
66857;BME280;53766;50.280;19.160;2023-07-13T01:34:12;98095.09;;;24.42;55.91
66857;BME280;53766;50.280;19.160;2023-07-13T01:36:40;98088.06;;;24.41;55.53
66857;BME280;53766;50.280;19.160;2023-07-13T01:39:07;98091.34;;;24.43;55.73
66857;BME280;53766;50.280;19.160;2023-07-13T01:41:35;98102.09;;;24.43;55.83
66857;BME280;53766;50.280;19.160;2023-07-13T01:44:21;98127.16;;;24.43;55.92
66857;BME280;53766;50.280;19.160;2023-07-13T01:46:49;98117.97;;;24.39;56.28
66857;BME280;53766;50.280;19.160;2023-07-13T01:49:16;98127.91;;;24.39;56.30
66857;BME280;53766;50.280;19.160;2023-07-13T01:51:44;98117.16;;;24.39;56.20
66857;BME280;53766;50.280;19.160;2023-07-13T01:54:11;98110.13;;;24.38;55.79
66857;BME280;53766;50.280;19.160;2023-07-13T01:56:39;98089.69;;;24.37;56.23
66857;BME280;53766;50.280;19.160;2023-07-13T01:59:07;98083.72;;;24.35;56.29
66857;BME280;53766;50.280;19.160;2023-07-13T02:01:35;98088.28;;;24.34;56.24
66857;BME280;53766;50.280;19.160;2023-07-13T02:04:03;98092.84;;;24.34;56.08
66857;BME280;53766;50.280;19.160;2023-07-13T02:06:30;98082.88;;;24.34;56.32
66857;BME280;53766;50.280;19.160;2023-07-13T02:08:58;98070.00;;;24.36;56.14
66857;BME280;53766;50.280;19.160;2023-07-13T02:11:26;98077.25;;;24.36;56.31
66857;BME280;53766;50.280;19.160;2023-07-13T02:14:00;98086.41;;;24.35;56.34
66857;BME280;53766;50.280;19.160;2023-07-13T02:16:31;98090.97;;;24.34;56.58
66857;BME280;53766;50.280;19.160;2023-07-13T02:18:58;98110.63;;;24.35;56.63
66857;BME280;53766;50.280;19.160;2023-07-13T02:21:28;98109.00;;;24.34;56.43
66857;BME280;53766;50.280;19.160;2023-07-13T02:23:55;98103.63;;;24.34;56.33
66857;BME280;53766;50.280;19.160;2023-07-13T02:26:25;98096.63;;;24.33;56.63
66857;BME280;53766;50.280;19.160;2023-07-13T02:28:53;98098.75;;;24.31;57.14
66857;BME280;53766;50.280;19.160;2023-07-13T02:31:21;98076.09;;;24.27;57.02
66857;BME280;53766;50.280;19.160;2023-07-13T02:33:48;98081.94;;;24.23;57.24
66857;BME280;53766;50.280;19.160;2023-07-13T02:36:16;98066.38;;;24.26;57.24
66857;BME280;53766;50.280;19.160;2023-07-13T02:38:43;98046.25;;;24.28;56.96
66857;BME280;53766;50.280;19.160;2023-07-13T02:41:11;98045.41;;;24.28;56.89
66857;BME280;53766;50.280;19.160;2023-07-13T02:43:39;98045.41;;;24.28;57.02
66857;BME280;53766;50.280;19.160;2023-07-13T02:46:07;98037.84;;;24.25;57.19
66857;BME280;53766;50.280;19.160;2023-07-13T02:48:36;98024.41;;;24.25;56.79
66857;BME280;53766;50.280;19.160;2023-07-13T02:51:04;98024.41;;;24.25;56.64
66857;BME280;53766;50.280;19.160;2023-07-13T02:53:32;98047.53;;;24.26;56.59
66857;BME280;53766;50.280;19.160;2023-07-13T02:56:00;98043.22;;;24.25;56.58
66857;BME280;53766;50.280;19.160;2023-07-13T02:58:27;98049.66;;;24.23;56.54
66857;BME280;53766;50.280;19.160;2023-07-13T03:00:55;98039.41;;;24.20;57.13
66857;BME280;53766;50.280;19.160;2023-07-13T03:03:23;98031.59;;;24.19;56.67
66857;BME280;53766;50.280;19.160;2023-07-13T03:05:59;98044.00;;;24.20;56.38
66857;BME280;53766;50.280;19.160;2023-07-13T03:08:27;98046.94;;;24.18;56.80
66857;BME280;53766;50.280;19.160;2023-07-13T03:11:05;98066.00;;;24.17;56.49
66857;BME280;53766;50.280;19.160;2023-07-13T03:13:34;98071.91;;;24.14;56.62
66857;BME280;53766;50.280;19.160;2023-07-13T03:16:01;98080.22;;;24.12;56.54
66857;BME280;53766;50.280;19.160;2023-07-13T03:18:29;98085.59;;;24.12;56.35
66857;BME280;53766;50.280;19.160;2023-07-13T03:20:57;98082.09;;;24.12;56.44
66857;BME280;53766;50.280;19.160;2023-07-13T03:23:25;98093.66;;;24.12;56.38
66857;BME280;53766;50.280;19.160;2023-07-13T03:26:05;98093.94;;;24.11;56.24
66857;BME280;53766;50.280;19.160;2023-07-13T03:28:33;98099.78;;;24.08;56.29
66857;BME280;53766;50.280;19.160;2023-07-13T03:31:06;98123.94;;;24.02;56.45
66857;BME280;53766;50.280;19.160;2023-07-13T03:33:35;98123.56;;;23.94;56.57
66857;BME280;53766;50.280;19.160;2023-07-13T03:36:04;98131.47;;;23.84;56.92
66857;BME280;53766;50.280;19.160;2023-07-13T03:38:32;98131.13;;;23.80;56.98
66857;BME280;53766;50.280;19.160;2023-07-13T03:41:00;98134.09;;;23.78;57.35
66857;BME280;53766;50.280;19.160;2023-07-13T03:43:28;98131.66;;;23.77;57.08
66857;BME280;53766;50.280;19.160;2023-07-13T03:45:55;98124.47;;;23.83;57.02
66857;BME280;53766;50.280;19.160;2023-07-13T03:48:23;98125.13;;;23.90;56.65
66857;BME280;53766;50.280;19.160;2023-07-13T03:50:50;98126.25;;;23.94;56.53
66857;BME280;53766;50.280;19.160;2023-07-13T03:53:18;98135.69;;;23.96;56.41
66857;BME280;53766;50.280;19.160;2023-07-13T03:55:46;98127.88;;;23.95;56.82
66857;BME280;53766;50.280;19.160;2023-07-13T04:00:54;98138.63;;;23.95;56.98
66857;BME280;53766;50.280;19.160;2023-07-13T04:03:22;98141.06;;;23.96;56.62
66857;BME280;53766;50.280;19.160;2023-07-13T04:05:49;98136.03;;;24.00;56.96
66857;BME280;53766;50.280;19.160;2023-07-13T04:08:17;98142.44;;;23.99;56.92
66857;BME280;53766;50.280;19.160;2023-07-13T04:10:45;98150.03;;;24.02;56.78
66857;BME280;53766;50.280;19.160;2023-07-13T04:13:12;98156.22;;;24.02;57.12
66857;BME280;53766;50.280;19.160;2023-07-13T04:15:40;98151.66;;;24.03;56.85
66857;BME280;53766;50.280;19.160;2023-07-13T04:18:07;98157.03;;;24.03;56.98
66857;BME280;53766;50.280;19.160;2023-07-13T04:20:36;98155.41;;;24.02;57.11
66857;BME280;53766;50.280;19.160;2023-07-13T04:23:03;98157.03;;;24.03;57.27
66857;BME280;53766;50.280;19.160;2023-07-13T04:25:31;98167.78;;;24.03;57.29
66857;BME280;53766;50.280;19.160;2023-07-13T04:27:58;98168.59;;;24.03;56.81
66857;BME280;53766;50.280;19.160;2023-07-13T04:30:26;98158.69;;;24.04;57.24
66857;BME280;53766;50.280;19.160;2023-07-13T04:32:53;98166.75;;;24.04;57.32
66857;BME280;53766;50.280;19.160;2023-07-13T04:35:21;98167.56;;;24.05;57.15
66857;BME280;53766;50.280;19.160;2023-07-13T04:37:49;98161.84;;;24.01;57.40
66857;BME280;53766;50.280;19.160;2023-07-13T04:40:17;98157.53;;;24.00;57.39
66857;BME280;53766;50.280;19.160;2023-07-13T04:42:46;98147.59;;;24.00;57.39
66857;BME280;53766;50.280;19.160;2023-07-13T04:45:14;98141.47;;;24.05;57.17
66857;BME280;53766;50.280;19.160;2023-07-13T04:47:42;98129.63;;;24.06;57.39
66857;BME280;53766;50.280;19.160;2023-07-13T04:50:11;98126.69;;;24.08;57.03
66857;BME280;53766;50.280;19.160;2023-07-13T04:52:39;98127.50;;;24.08;57.23
66857;BME280;53766;50.280;19.160;2023-07-13T04:55:07;98114.63;;;24.10;56.98
66857;BME280;53766;50.280;19.160;2023-07-13T04:57:35;98123.25;;;24.12;56.87
66857;BME280;53766;50.280;19.160;2023-07-13T05:00:03;98123.25;;;24.12;57.37
66857;BME280;53766;50.280;19.160;2023-07-13T05:02:33;98124.91;;;24.13;57.15
66857;BME280;53766;50.280;19.160;2023-07-13T05:05:02;98121.13;;;24.14;57.39
66857;BME280;53766;50.280;19.160;2023-07-13T05:07:31;98121.13;;;24.14;57.43
66857;BME280;53766;50.280;19.160;2023-07-13T05:10:00;98109.56;;;24.14;57.81
66857;BME280;53766;50.280;19.160;2023-07-13T05:12:28;98107.09;;;24.12;57.71
66857;BME280;53766;50.280;19.160;2023-07-13T05:14:55;98107.09;;;24.12;57.44
66857;BME280;53766;50.280;19.160;2023-07-13T05:17:23;98112.50;;;24.12;57.59
66857;BME280;53766;50.280;19.160;2023-07-13T05:19:50;98114.63;;;24.10;57.82
66857;BME280;53766;50.280;19.160;2023-07-13T05:22:17;98116.75;;;24.08;57.85
66857;BME280;53766;50.280;19.160;2023-07-13T05:24:45;98121.31;;;24.08;57.84
66857;BME280;53766;50.280;19.160;2023-07-13T05:27:13;98124.25;;;24.06;57.99
66857;BME280;53766;50.280;19.160;2023-07-13T05:29:40;98122.63;;;24.05;57.76
66857;BME280;53766;50.280;19.160;2023-07-13T05:32:08;98126.94;;;24.06;57.78
66857;BME280;53766;50.280;19.160;2023-07-13T05:34:35;98129.63;;;24.06;57.66
66857;BME280;53766;50.280;19.160;2023-07-13T05:37:03;98127.50;;;24.08;57.31
66857;BME280;53766;50.280;19.160;2023-07-13T05:39:31;98128.34;;;24.09;57.20
66857;BME280;53766;50.280;19.160;2023-07-13T05:41:58;98125.38;;;24.10;57.02
66857;BME280;53766;50.280;19.160;2023-07-13T05:44:26;98118.38;;;24.09;57.30
66857;BME280;53766;50.280;19.160;2023-07-13T05:46:53;98113.81;;;24.10;57.04
66857;BME280;53766;50.280;19.160;2023-07-13T05:49:23;98111.94;;;24.10;56.88
66857;BME280;53766;50.280;19.160;2023-07-13T05:51:51;98110.06;;;24.11;56.71
66857;BME280;53766;50.280;19.160;2023-07-13T05:54:18;98115.44;;;24.11;56.91
66857;BME280;53766;50.280;19.160;2023-07-13T05:56:46;98109.22;;;24.10;57.69
66857;BME280;53766;50.280;19.160;2023-07-13T05:59:13;98103.03;;;24.10;57.67
66857;BME280;53766;50.280;19.160;2023-07-13T06:01:41;98112.19;;;24.09;57.62
66857;BME280;53766;50.280;19.160;2023-07-13T06:04:08;98109.22;;;24.10;57.50
66857;BME280;53766;50.280;19.160;2023-07-13T06:06:36;98100.13;;;24.11;57.87
66857;BME280;53766;50.280;19.160;2023-07-13T06:09:03;98096.63;;;24.11;57.70
66857;BME280;53766;50.280;19.160;2023-07-13T06:11:31;98100.94;;;24.12;57.79
66857;BME280;53766;50.280;19.160;2023-07-13T06:13:58;98101.72;;;24.12;58.10
66857;BME280;53766;50.280;19.160;2023-07-13T06:16:26;98097.19;;;24.13;57.54
66857;BME280;53766;50.280;19.160;2023-07-13T06:18:53;98112.50;;;24.12;57.58
66857;BME280;53766;50.280;19.160;2023-07-13T06:21:22;98110.06;;;24.11;57.38
66857;BME280;53766;50.280;19.160;2023-07-13T06:23:51;98107.63;;;24.09;57.92
66857;BME280;53766;50.280;19.160;2023-07-13T06:26:20;98104.69;;;24.11;57.67
66857;BME280;53766;50.280;19.160;2023-07-13T06:28:47;98103.38;;;24.13;57.45
66857;BME280;53766;50.280;19.160;2023-07-13T06:31:15;98100.69;;;24.13;57.56
66857;BME280;53766;50.280;19.160;2023-07-13T06:33:43;98103.38;;;24.13;57.83
66857;BME280;53766;50.280;19.160;2023-07-13T06:36:12;98104.41;;;24.12;57.98
66857;BME280;53766;50.280;19.160;2023-07-13T06:38:39;98099.59;;;24.14;57.85
66857;BME280;53766;50.280;19.160;2023-07-13T06:41:07;98094.56;;;24.18;57.38
66857;BME280;53766;50.280;19.160;2023-07-13T06:43:36;98100.75;;;24.18;57.17
66857;BME280;53766;50.280;19.160;2023-07-13T06:46:03;98096.50;;;24.22;56.79
66857;BME280;53766;50.280;19.160;2023-07-13T06:48:31;98097.28;;;24.23;57.12
66857;BME280;53766;50.280;19.160;2023-07-13T06:50:59;98101.34;;;24.26;56.70
66857;BME280;53766;50.280;19.160;2023-07-13T06:53:26;98106.75;;;24.26;57.03
66857;BME280;53766;50.280;19.160;2023-07-13T06:55:54;98103.00;;;24.27;56.96
66857;BME280;53766;50.280;19.160;2023-07-13T06:58:21;98106.25;;;24.29;57.34
66857;BME280;53766;50.280;19.160;2023-07-13T07:00:50;98107.88;;;24.30;57.46
66857;BME280;53766;50.280;19.160;2023-07-13T07:03:19;98112.75;;;24.33;57.00
66857;BME280;53766;50.280;19.160;2023-07-13T07:05:46;98123.53;;;24.33;57.37
66857;BME280;53766;50.280;19.160;2023-07-13T07:08:14;98121.41;;;24.35;56.86
66857;BME280;53766;50.280;19.160;2023-07-13T07:10:42;98119.75;;;24.34;57.22
66857;BME280;53766;50.280;19.160;2023-07-13T07:13:10;98125.16;;;24.34;57.44
66857;BME280;53766;50.280;19.160;2023-07-13T07:15:37;98137.56;;;24.35;56.68
66857;BME280;53766;50.280;19.160;2023-07-13T07:18:05;98138.13;;;24.37;56.90
66857;BME280;53766;50.280;19.160;2023-07-13T07:20:32;98146.19;;;24.37;57.16
66857;BME280;53766;50.280;19.160;2023-07-13T07:23:00;98147.47;;;24.34;56.66
66857;BME280;53766;50.280;19.160;2023-07-13T07:25:28;98152.56;;;24.31;55.94
66857;BME280;53766;50.280;19.160;2023-07-13T07:27:59;98150.94;;;24.30;56.13
66857;BME280;53766;50.280;19.160;2023-07-13T07:30:29;98163.34;;;24.31;56.19
66857;BME280;53766;50.280;19.160;2023-07-13T07:32:59;98163.91;;;24.33;56.13
66857;BME280;53766;50.280;19.160;2023-07-13T07:35:32;98158.25;;;24.34;56.22
66857;BME280;53766;50.280;19.160;2023-07-13T07:38:05;98159.88;;;24.35;56.61
66857;BME280;53766;50.280;19.160;2023-07-13T07:40:36;98158.81;;;24.36;56.71
66857;BME280;53766;50.280;19.160;2023-07-13T07:43:08;98170.97;;;24.39;56.74
66857;BME280;53766;50.280;19.160;2023-07-13T07:45:36;98163.72;;;24.39;57.50
66857;BME280;53766;50.280;19.160;2023-07-13T07:48:05;98164.53;;;24.40;57.18
66857;BME280;53766;50.280;19.160;2023-07-13T07:50:33;98162.63;;;24.40;57.15
66857;BME280;53766;50.280;19.160;2023-07-13T07:53:00;98170.47;;;24.42;56.66
66857;BME280;53766;50.280;19.160;2023-07-13T07:55:29;98161.59;;;24.41;57.04
66857;BME280;53766;50.280;19.160;2023-07-13T07:58:00;98167.78;;;24.42;56.69
66857;BME280;53766;50.280;19.160;2023-07-13T08:00:30;98164.00;;;24.43;57.00
66857;BME280;53766;50.280;19.160;2023-07-13T08:03:18;98165.66;;;24.44;57.09
66857;BME280;53766;50.280;19.160;2023-07-13T08:05:52;98169.41;;;24.43;57.12
66857;BME280;53766;50.280;19.160;2023-07-13T08:08:39;98157.56;;;24.44;57.34
66857;BME280;53766;50.280;19.160;2023-07-13T08:11:09;98150.31;;;24.44;57.40
66857;BME280;53766;50.280;19.160;2023-07-13T08:13:40;98148.44;;;24.45;57.82
66857;BME280;53766;50.280;19.160;2023-07-13T08:16:08;98146.81;;;24.44;57.58
66857;BME280;53766;50.280;19.160;2023-07-13T08:18:36;98140.34;;;24.45;57.24
66857;BME280;53766;50.280;19.160;2023-07-13T08:21:07;98150.88;;;24.47;56.92
66857;BME280;53766;50.280;19.160;2023-07-13T08:23:36;98139.31;;;24.46;56.81
66857;BME280;53766;50.280;19.160;2023-07-13T08:26:04;98144.69;;;24.46;56.83
66857;BME280;53766;50.280;19.160;2023-07-13T08:28:32;98139.78;;;24.43;56.40
66857;BME280;53766;50.280;19.160;2023-07-13T08:31:02;98137.09;;;24.43;56.82
66857;BME280;53766;50.280;19.160;2023-07-13T08:33:30;98132.78;;;24.42;56.39
66857;BME280;53766;50.280;19.160;2023-07-13T08:35:58;98136.00;;;24.39;56.38
66857;BME280;53766;50.280;19.160;2023-07-13T08:38:25;98129.53;;;24.40;56.63
66857;BME280;53766;50.280;19.160;2023-07-13T08:40:55;98129.53;;;24.40;56.83
66857;BME280;53766;50.280;19.160;2023-07-13T08:43:35;98124.94;;;24.40;56.67
66857;BME280;53766;50.280;19.160;2023-07-13T08:46:15;98128.44;;;24.41;56.59
66857;BME280;53766;50.280;19.160;2023-07-13T08:48:53;98133.03;;;24.40;56.65
66857;BME280;53766;50.280;19.160;2023-07-13T08:54:31;98130.03;;;24.37;56.46
66857;BME280;53766;50.280;19.160;2023-07-13T08:56:57;98134.28;;;24.33;56.74
66857;BME280;53766;50.280;19.160;2023-07-13T08:59:28;98124.56;;;24.32;56.83
66857;BME280;53766;50.280;19.160;2023-07-13T09:02:25;98130.53;;;24.34;57.21
66857;BME280;53766;50.280;19.160;2023-07-13T09:05:01;98137.56;;;24.35;56.79
66857;BME280;53766;50.280;19.160;2023-07-13T09:08:30;98131.59;;;24.33;56.59
66857;BME280;53766;50.280;19.160;2023-07-13T09:14:22;98145.53;;;24.30;56.69
66857;BME280;53766;50.280;19.160;2023-07-13T09:16:48;98133.16;;;24.29;56.45
66857;BME280;53766;50.280;19.160;2023-07-13T09:19:23;98139.03;;;24.26;56.71
66857;BME280;53766;50.280;19.160;2023-07-13T09:21:54;98140.09;;;24.25;57.08
66857;BME280;53766;50.280;19.160;2023-07-13T09:27:22;98144.41;;;24.26;56.89
66857;BME280;53766;50.280;19.160;2023-07-13T09:30:02;98136.59;;;24.24;57.22
66857;BME280;53766;50.280;19.160;2023-07-13T09:32:37;98136.59;;;24.24;57.49
66857;BME280;53766;50.280;19.160;2023-07-13T09:35:16;98134.16;;;24.22;57.42
66857;BME280;53766;50.280;19.160;2023-07-13T09:37:45;98134.41;;;24.21;57.40
66857;BME280;53766;50.280;19.160;2023-07-13T09:40:30;98139.53;;;24.22;57.06
66857;BME280;53766;50.280;19.160;2023-07-13T09:43:03;98136.28;;;24.20;56.98
66857;BME280;53766;50.280;19.160;2023-07-13T09:45:33;98144.59;;;24.19;57.25
66857;BME280;53766;50.280;19.160;2023-07-13T09:48:10;98148.13;;;24.19;57.16
66857;BME280;53766;50.280;19.160;2023-07-13T09:50:39;98151.88;;;24.18;57.16
66857;BME280;53766;50.280;19.160;2023-07-13T09:53:17;98162.56;;;24.13;56.80
66857;BME280;53766;50.280;19.160;2023-07-13T09:55:47;98168.41;;;24.10;56.66
66857;BME280;53766;50.280;19.160;2023-07-13T09:58:25;98174.16;;;23.97;56.33
66857;BME280;53766;50.280;19.160;2023-07-13T10:01:02;98189.16;;;23.93;56.50
66857;BME280;53766;50.280;19.160;2023-07-13T10:03:36;98186.41;;;23.88;55.96
66857;BME280;53766;50.280;19.160;2023-07-13T10:06:16;98207.28;;;23.80;56.13
66857;BME280;53766;50.280;19.160;2023-07-13T10:08:46;98212.56;;;23.75;55.78
66857;BME280;53766;50.280;19.160;2023-07-13T10:11:29;98228.06;;;23.73;55.43
66857;BME280;53766;50.280;19.160;2023-07-13T10:13:59;98238.56;;;23.58;54.64
66857;BME280;53766;50.280;19.160;2023-07-13T10:16:30;98245.41;;;23.49;55.03
66857;BME280;53766;50.280;19.160;2023-07-13T10:19:03;98268.94;;;23.41;55.72
66857;BME280;53766;50.280;19.160;2023-07-13T10:21:36;98278.03;;;23.40;55.19
66857;BME280;53766;50.280;19.160;2023-07-13T10:24:15;98284.78;;;23.26;55.08
66857;BME280;53766;50.280;19.160;2023-07-13T10:26:52;98291.47;;;23.24;55.16
66857;BME280;53766;50.280;19.160;2023-07-13T10:29:26;98299.44;;;23.07;55.64
66857;BME280;53766;50.280;19.160;2023-07-13T10:31:55;98298.28;;;23.03;55.72
66857;BME280;53766;50.280;19.160;2023-07-13T10:34:25;98291.53;;;23.00;55.99
66857;BME280;53766;50.280;19.160;2023-07-13T10:36:54;98300.84;;;22.97;56.20
66857;BME280;53766;50.280;19.160;2023-07-13T10:39:27;98302.09;;;22.95;56.00
66857;BME280;53766;50.280;19.160;2023-07-13T10:41:59;98314.06;;;22.87;56.32
66857;BME280;53766;50.280;19.160;2023-07-13T10:44:29;98317.19;;;22.84;56.28
66857;BME280;53766;50.280;19.160;2023-07-13T10:47:12;98317.31;;;22.77;56.16
66857;BME280;53766;50.280;19.160;2023-07-13T10:49:41;98315.69;;;22.76;56.65
66857;BME280;53766;50.280;19.160;2023-07-13T10:52:50;98320.25;;;22.76;56.56
66857;BME280;53766;50.280;19.160;2023-07-13T10:55:37;98319.31;;;22.82;56.55
66857;BME280;53766;50.280;19.160;2023-07-13T10:58:19;98312.66;;;22.85;56.73
66857;BME280;53766;50.280;19.160;2023-07-13T11:01:02;98317.53;;;22.88;56.72
66857;BME280;53766;50.280;19.160;2023-07-13T11:03:33;98310.44;;;22.93;56.56
66857;BME280;53766;50.280;19.160;2023-07-13T11:19:24;98327.69;;;22.97;56.00
66857;BME280;53766;50.280;19.160;2023-07-13T11:22:10;98323.59;;;22.95;56.15
66857;BME280;53766;50.280;19.160;2023-07-13T11:24:52;98331.91;;;22.93;55.83
66857;BME280;53766;50.280;19.160;2023-07-13T11:27:34;98326.53;;;22.93;55.94
66857;BME280;53766;50.280;19.160;2023-07-13T11:30:25;98329.69;;;22.90;56.08
66857;BME280;53766;50.280;19.160;2023-07-13T11:36:13;98332.22;;;22.97;56.12
66857;BME280;53766;50.280;19.160;2023-07-13T11:41:48;98333.19;;;23.03;56.36
66857;BME280;53766;50.280;19.160;2023-07-13T11:44:20;98319.78;;;23.03;56.43
66857;BME280;53766;50.280;19.160;2023-07-13T11:46:53;98330.50;;;23.03;56.19
66857;BME280;53766;50.280;19.160;2023-07-13T11:49:26;98328.19;;;23.06;56.27
66857;BME280;53766;50.280;19.160;2023-07-13T11:51:57;98330.03;;;23.06;56.13
66857;BME280;53766;50.280;19.160;2023-07-13T11:54:30;98327.91;;;23.08;55.97
66857;BME280;53766;50.280;19.160;2023-07-13T11:57:29;98316.72;;;23.11;55.94
66857;BME280;53766;50.280;19.160;2023-07-13T12:00:09;98317.88;;;23.15;55.92
66857;BME280;53766;50.280;19.160;2023-07-13T12:02:41;98324.28;;;23.14;56.28
66857;BME280;53766;50.280;19.160;2023-07-13T12:05:12;98317.88;;;23.15;56.09
66857;BME280;53766;50.280;19.160;2023-07-13T12:07:42;98322.53;;;23.19;55.89
66857;BME280;53766;50.280;19.160;2023-07-13T12:10:29;98314.34;;;23.26;55.79
66857;BME280;53766;50.280;19.160;2023-07-13T12:13:03;98320.03;;;23.30;56.00
66857;BME280;53766;50.280;19.160;2023-07-13T12:15:45;98330.47;;;23.26;56.26
66857;BME280;53766;50.280;19.160;2023-07-13T12:18:20;98334.69;;;23.22;56.55
66857;BME280;53766;50.280;19.160;2023-07-13T12:20:49;98328.22;;;23.23;56.19
66857;BME280;53766;50.280;19.160;2023-07-13T12:25:57;98328.72;;;23.20;55.86
66857;BME280;53766;50.280;19.160;2023-07-13T12:28:36;98329.31;;;23.22;56.35
66857;BME280;53766;50.280;19.160;2023-07-13T12:31:08;98331.19;;;23.22;56.66
66857;BME280;53766;50.280;19.160;2023-07-13T12:33:56;98319.28;;;23.17;56.17
66857;BME280;53766;50.280;19.160;2023-07-13T12:36:24;98336.78;;;23.20;56.48
66857;BME280;53766;50.280;19.160;2023-07-13T12:38:53;98331.91;;;23.17;56.11
66857;BME280;53766;50.280;19.160;2023-07-13T12:41:21;98334.09;;;23.20;56.04
66857;BME280;53766;50.280;19.160;2023-07-13T12:43:52;98331.41;;;23.20;56.37
66857;BME280;53766;50.280;19.160;2023-07-13T12:46:21;98334.59;;;23.17;56.11
66857;BME280;53766;50.280;19.160;2023-07-13T12:48:52;98339.84;;;23.12;56.14
66857;BME280;53766;50.280;19.160;2023-07-13T12:51:39;98340.06;;;23.10;57.06
66857;BME280;53766;50.280;19.160;2023-07-13T12:54:16;98344.53;;;23.05;56.35
66857;BME280;53766;50.280;19.160;2023-07-13T12:56:45;98348.25;;;23.04;56.87
66857;BME280;53766;50.280;19.160;2023-07-13T12:59:21;98342.56;;;23.00;56.44
66857;BME280;53766;50.280;19.160;2023-07-13T13:01:49;98341.72;;;22.99;56.91
66857;BME280;53766;50.280;19.160;2023-07-13T13:04:17;98349.91;;;23.05;56.91
66857;BME280;53766;50.280;19.160;2023-07-13T13:07:00;98346.16;;;23.06;57.05
66857;BME280;53766;50.280;19.160;2023-07-13T13:09:28;98354.19;;;23.06;56.92
66857;BME280;53766;50.280;19.160;2023-07-13T13:11:56;98361.81;;;23.09;57.06
66857;BME280;53766;50.280;19.160;2023-07-13T13:14:24;98369.28;;;23.07;57.15
66857;BME280;53766;50.280;19.160;2023-07-13T13:16:52;98362.25;;;23.06;56.53
66857;BME280;53766;50.280;19.160;2023-07-13T13:19:24;98361.56;;;23.10;56.77
66857;BME280;53766;50.280;19.160;2023-07-13T13:21:53;98359.22;;;23.14;57.49
66857;BME280;53766;50.280;19.160;2023-07-13T13:24:23;98366.25;;;23.15;57.27
66857;BME280;53766;50.280;19.160;2023-07-13T13:26:52;98372.66;;;23.14;57.31
66857;BME280;53766;50.280;19.160;2023-07-13T13:29:23;98380.13;;;23.12;56.84
66857;BME280;53766;50.280;19.160;2023-07-13T13:31:54;98376.50;;;23.18;57.17
66857;BME280;53766;50.280;19.160;2023-07-13T13:34:24;98370.31;;;23.17;56.95
66857;BME280;53766;50.280;19.160;2023-07-13T13:36:53;98378.13;;;23.19;57.06
66857;BME280;53766;50.280;19.160;2023-07-13T13:39:35;98377.31;;;23.18;56.95
66857;BME280;53766;50.280;19.160;2023-07-13T13:42:04;98366.25;;;23.15;56.93
66857;BME280;53766;50.280;19.160;2023-07-13T13:44:32;98378.13;;;23.19;56.60
66857;BME280;53766;50.280;19.160;2023-07-13T13:46:59;98381.66;;;23.19;56.98